MDLR/LRM METAR and TAF weather

Enter ICAO airport designator
Station Type Date Time Source
MDLR METAR 2022/12/04 12:00 UTC NOAA

MDLR 041200Z 00000KT 9999 FEW016CB FEW018 23/23 Q1012 CB/N


Station Type Date Time Source
MDLR Decoded METAR 2022/12/04 12:00 UTC NOAA

La Romana International Airport, Dominican Republic (MDLR) 18-25N 068-57W
Dec 04, 2022 - 07:00 AM EST / 2022.12.04 1200 UTC
Wind: Calm:0
Visibility: greater than 7 mile(s):0
Sky conditions: mostly clear
Weather: Cumulonimbus clouds observed
Temperature: 73 F (23 C)
Dew Point: 73 F (23 C)
Relative Humidity: 100%
Pressure (altimeter): 29.88 in. Hg (1012 hPa)
ob: MDLR 041200Z 00000KT 9999 FEW016CB FEW018 23/23 Q1012 CB/N
cycle: 12

Station Type Date Time Source
MDLR TAF 2022/12/04 12:17 UTC NOAA

TAF MDLR 041000Z 0412/0512 06007KT 9999 SCT018 PROB30 0416/0422 7000 -RA BKN016

Example: see airport list